Time;durP1;ratioP1;P1;durP2;ratioP2;P2;SDS_P1;SDS_P2;PMS_P1;PMS_P2;Temp;Humidity;BMP_temperature;BMP_pressure;BME280_temperature;BME280_humidity;BME280_pressure;Samples;Min_cycle;Max_cycle;Signal;HPM_P1;HPM_P2
2021/11/20 00:00:21;;;;;;;13.70;9.70;;;;;;;7.21;76.65;97999.63;5014690;28;20050;-76
2021/11/20 00:02:49;;;;;;;12.10;9.05;;;;;;;7.21;76.64;98010.84;5014802;28;20508;-76
2021/11/20 00:05:22;;;;;;;12.82;10.23;;;;;;;7.22;76.39;98002.09;5014933;28;20492;-76
2021/11/20 00:07:50;;;;;;;13.63;10.48;;;;;;;7.19;76.41;97998.94;5014692;28;20539;-76
2021/11/20 00:10:21;;;;;;;11.80;9.68;;;;;;;7.18;76.59;97999.91;5014378;28;20053;-76
2021/11/20 00:12:50;;;;;;;12.10;9.65;;;;;;;7.19;76.98;98004.13;5014993;28;20061;-75
2021/11/20 00:15:22;;;;;;;11.50;9.38;;;;;;;7.20;76.70;98004.00;5014707;28;20057;-76
2021/11/20 00:17:50;;;;;;;11.32;8.82;;;;;;;7.22;76.69;97998.69;5014636;28;20058;-76
2021/11/20 00:20:22;;;;;;;12.40;10.00;;;;;;;7.22;76.71;97996.91;5014264;28;20083;-76
2021/11/20 00:22:52;;;;;;;13.85;10.15;;;;;;;7.21;76.40;97997.88;5014411;28;20157;-76
2021/11/20 00:25:23;;;;;;;12.80;9.10;;;;;;;7.22;76.77;97990.91;5014503;28;20431;-76
2021/11/20 00:27:54;;;;;;;11.82;8.82;;;;;;;7.21;76.66;97995.28;5014617;28;20058;-76
2021/11/20 00:30:28;;;;;;;12.02;9.95;;;;;;;7.20;76.70;98003.19;5014160;28;20057;-77
2021/11/20 00:33:02;;;;;;;13.00;9.73;;;;;;;7.21;76.84;97990.09;5014240;28;20050;-77
2021/11/20 00:35:35;;;;;;;13.23;10.18;;;;;;;7.21;76.57;97990.09;5014324;28;20054;-76
2021/11/20 00:38:02;;;;;;;;;;;;;;;7.24;76.64;97983.81;5014700;28;20499;-76
2021/11/20 00:40:36;;;;;;;12.82;9.13;;;;;;;7.22;76.31;97990.91;5013512;28;19928;-76
2021/11/20 00:43:03;;;;;;;14.45;10.40;;;;;;;7.21;76.39;97997.03;5014078;28;20049;-76
2021/11/20 00:45:31;;;;;;;14.98;10.48;;;;;;;7.21;76.39;97994.44;5013954;28;20054;-76
2021/11/20 00:47:59;;;;;;;16.65;11.45;;;;;;;7.21;76.58;97995.28;5014023;28;20054;-76
2021/11/20 00:50:28;;;;;;;16.23;11.02;;;;;;;7.22;76.35;98002.09;5013699;28;20085;-76
2021/11/20 00:52:57;;;;;;;15.13;10.95;;;;;;;7.23;76.79;97992.53;5013999;28;20049;-76
2021/11/20 00:55:27;;;;;;;16.67;12.20;;;;;;;7.25;76.67;97992.44;5013742;28;20049;-76
2021/11/20 00:57:59;;;;;;;18.30;12.70;;;;;;;7.26;76.63;97996.66;5014575;28;20057;-76
2021/11/20 01:00:29;;;;;;;15.95;11.55;;;;;;;7.24;76.75;97994.22;5013319;28;20053;-75
2021/11/20 01:02:57;;;;;;;15.88;11.65;;;;;;;7.27;76.60;97993.13;5013881;28;20085;-76
2021/11/20 01:05:25;;;;;;;16.73;12.90;;;;;;;7.28;76.71;97998.19;5013815;28;20491;-75
2021/11/20 01:07:53;;;;;;;19.35;12.80;;;;;;;7.27;76.47;97998.31;5013543;28;20140;-75
2021/11/20 01:10:30;;;;;;;18.58;12.82;;;;;;;7.22;76.79;97996.91;5013207;28;20050;-75
2021/11/20 01:12:58;;;;;;;17.10;12.50;;;;;;;7.20;76.95;97991.03;5013279;28;20064;-76
2021/11/20 01:15:29;;;;;;;17.15;12.73;;;;;;;7.20;77.35;97987.63;5013208;28;20532;-75
2021/11/20 01:17:56;;;;;;;18.23;12.40;;;;;;;7.22;77.14;97975.34;5013451;28;20058;-75
2021/11/20 01:20:25;;;;;;;19.90;13.25;;;;;;;7.24;76.68;97983.81;5013899;28;20050;-76
2021/11/20 01:22:53;;;;;;;19.73;13.18;;;;;;;7.25;76.87;97969.06;5013314;28;20404;-75
2021/11/20 01:25:22;;;;;;;21.60;13.32;;;;;;;7.25;76.77;97964.69;5012991;28;20053;-75
2021/11/20 01:27:50;;;;;;;19.95;14.43;;;;;;;7.27;76.66;97962.78;5013421;28;20050;-75
2021/11/20 01:30:18;;;;;;;17.77;12.90;;;;;;;7.29;76.75;97960.91;5013142;28;20052;-75
2021/11/20 01:32:45;;;;;;;21.67;13.60;;;;;;;7.30;76.46;97962.53;5013529;28;20041;-75
2021/11/20 01:35:14;;;;;;;19.88;13.70;;;;;;;7.32;76.52;97965.00;5013295;28;20056;-76
2021/11/20 01:37:41;;;;;;;18.48;13.05;;;;;;;7.32;76.67;97962.41;5013339;28;20073;-75
2021/11/20 01:40:13;;;;;;;22.67;14.18;;;;;;;7.31;76.41;97959.00;5012831;28;20050;-75
2021/11/20 01:42:43;;;;;;;21.88;13.85;;;;;;;7.29;76.71;97955.72;5013194;28;20535;-75
2021/11/20 01:45:13;;;;;;;18.20;12.82;;;;;;;7.30;76.80;97957.34;5013030;28;20043;-75
2021/11/20 01:47:47;;;;;;;18.77;13.45;;;;;;;7.32;76.50;97955.44;5013274;28;20050;-75
2021/11/20 01:50:18;;;;;;;21.45;13.93;;;;;;;7.32;76.69;97944.25;5013239;28;20049;-75
2021/11/20 01:52:52;;;;;;;20.65;14.63;;;;;;;7.33;76.67;97943.31;5029905;28;20048;-75
2021/11/20 01:55:32;;;;;;;21.48;14.50;;;;;;;7.32;76.75;97939.88;5035557;28;20050;-75
2021/11/20 01:58:08;;;;;;;21.83;14.40;;;;;;;7.32;76.95;97933.84;5033221;28;20050;-75
2021/11/20 02:00:40;;;;;;;17.20;12.80;;;;;;;7.34;76.68;97932.78;5017782;28;20431;-76
2021/11/20 02:03:14;;;;;;;21.03;14.20;;;;;;;7.36;76.70;97930.88;5016520;28;20050;-75
2021/11/20 02:06:04;;;;;;;19.80;13.77;;;;;;;7.37;76.43;97929.94;5015658;28;20299;-75
2021/11/20 02:08:37;;;;;;;21.95;14.98;;;;;;;7.37;76.62;97929.94;5014292;28;20050;-75
2021/11/20 02:11:10;;;;;;;20.90;14.43;;;;;;;7.36;76.44;97922.28;5013782;28;20061;-76
2021/11/20 02:13:39;;;;;;;20.55;14.13;;;;;;;7.34;76.44;97912.00;5013016;28;20050;-75
2021/11/20 02:16:11;;;;;;;19.85;13.85;;;;;;;7.35;76.61;97908.47;5013530;28;20069;-76
2021/11/20 02:18:43;;;;;;;22.00;15.00;;;;;;;7.33;76.57;97912.97;5013269;28;20053;-75
2021/11/20 02:21:18;;;;;;;19.63;13.93;;;;;;;7.33;76.67;97909.56;5013219;28;20419;-75
2021/11/20 02:23:46;;;;;;;21.83;14.68;;;;;;;7.33;76.54;97907.78;5013270;28;20517;-75
2021/11/20 02:26:13;;;;;;;24.88;15.40;;;;;;;7.32;76.79;97903.53;5012844;28;20057;-75
2021/11/20 02:28:42;;;;;;;20.20;13.90;;;;;;;7.32;76.76;97903.53;5012272;28;20415;-75
2021/11/20 02:31:11;;;;;;;21.67;13.80;;;;;;;7.33;76.75;97900.00;5012827;28;20049;-75
2021/11/20 02:33:41;;;;;;;18.20;12.73;;;;;;;7.34;76.87;97893.03;5012886;28;20082;-75
2021/11/20 02:36:11;;;;;;;23.98;14.57;;;;;;;7.34;76.58;97887.84;5012938;28;20504;-75
2021/11/20 02:38:42;;;;;;;19.92;13.27;;;;;;;7.34;76.79;97875.66;5014509;28;20503;-75
2021/11/20 02:41:12;;;;;;;19.75;13.52;;;;;;;7.35;76.64;97881.72;5016539;28;20057;-75
2021/11/20 02:43:42;;;;;;;23.80;15.15;;;;;;;7.34;76.78;97875.66;5016429;28;20423;-75
2021/11/20 02:46:15;;;;;;;21.58;14.48;;;;;;;7.33;77.14;97871.44;5016629;28;20057;-76
2021/11/20 02:48:43;;;;;;;21.63;13.85;;;;;;;7.33;76.80;97870.63;5015916;28;20054;-75
2021/11/20 02:51:13;;;;;;;19.15;13.60;;;;;;;7.36;76.74;97873.75;5016472;28;20419;-74
2021/11/20 02:53:43;;;;;;;20.85;14.60;;;;;;;7.35;76.88;97866.13;5016362;28;20049;-75
2021/11/20 02:56:13;;;;;;;20.88;13.70;;;;;;;7.33;77.34;97866.25;5525233;23;20316;-73
2021/11/20 02:58:41;;;;;;;22.50;14.65;;;;;;;7.33;77.04;97866.25;5018632;28;20060;-73
2021/11/20 03:01:13;;;;;;;17.63;12.63;;;;;;;7.35;77.14;97868.72;5018114;28;20057;-73
2021/11/20 03:03:41;;;;;;;22.30;14.23;;;;;;;7.35;77.23;97866.94;5017400;28;20133;-73
2021/11/20 03:06:09;;;;;;;23.38;13.70;;;;;;;7.36;77.12;97867.75;5016742;28;20061;-73
2021/11/20 03:08:37;;;;;;;20.40;13.57;;;;;;;7.37;76.99;97867.63;5016682;28;20073;-73
2021/11/20 03:11:05;;;;;;;21.77;14.75;;;;;;;7.38;77.05;97861.47;5016570;28;20462;-73
2021/11/20 03:13:33;;;;;;;19.15;13.25;;;;;;;7.38;77.04;97851.09;5016646;28;20149;-75
2021/11/20 03:16:01;;;;;;;20.40;13.48;;;;;;;7.37;77.03;97862.44;5016296;28;20057;-75
2021/11/20 03:18:30;;;;;;;22.15;14.82;;;;;;;7.35;77.20;97860.94;5016371;28;20046;-75
2021/11/20 03:20:57;;;;;;;19.10;13.40;;;;;;;7.33;77.35;97857.66;5016092;28;20052;-75
2021/11/20 03:23:27;;;;;;;20.30;13.35;;;;;;;7.32;77.54;97849.03;5016033;28;20053;-75
2021/11/20 03:25:55;;;;;;;20.13;13.43;;;;;;;7.34;77.38;97851.50;5016598;28;20418;-75
2021/11/20 03:28:22;;;;;;;18.77;13.30;;;;;;;7.37;77.20;97848.66;5015948;28;20058;-75
2021/11/20 03:30:51;;;;;;;19.25;13.13;;;;;;;7.39;77.20;97852.75;5016416;28;20050;-75
2021/11/20 03:33:19;;;;;;;16.48;11.95;;;;;;;7.43;77.04;97848.94;5015838;28;20050;-75
2021/11/20 03:35:49;;;;;;;17.48;12.40;;;;;;;7.45;76.95;97846.19;5015078;28;20057;-74
2021/11/20 03:38:17;;;;;;;17.65;12.52;;;;;;;7.47;76.92;97846.91;5015851;28;20327;-75
2021/11/20 03:40:45;;;;;;;20.35;13.88;;;;;;;7.48;76.54;97839.91;5016078;28;20045;-75
2021/11/20 03:43:14;;;;;;;19.92;12.43;;;;;;;7.47;76.78;97835.69;5015501;28;20060;-74
2021/11/20 03:45:42;;;;;;;18.83;13.13;;;;;;;7.49;76.58;97841.59;5015276;28;20085;-75
2021/11/20 03:48:10;;;;;;;18.30;12.95;;;;;;;7.49;77.10;97834.59;5014857;28;20073;-75
2021/11/20 03:50:38;;;;;;;21.00;15.07;;;;;;;7.50;76.67;97835.41;5015155;28;20042;-75
2021/11/20 03:53:07;;;;;;;18.63;12.48;;;;;;;7.50;76.73;97832.81;5015223;28;20518;-75
2021/11/20 03:55:38;;;;;;;18.48;13.20;;;;;;;7.51;76.77;97832.69;5015034;28;20061;-75
2021/11/20 03:58:07;;;;;;;18.77;13.25;;;;;;;7.54;76.67;97823.81;5014673;28;20042;-75
2021/11/20 04:00:37;;;;;;;17.90;12.77;;;;;;;7.55;76.99;97821.09;5014768;28;20084;-75
2021/11/20 04:03:05;;;;;;;16.98;12.50;;;;;;;7.56;76.87;97821.91;5014918;28;20046;-74
2021/11/20 04:05:33;;;;;;;17.35;12.30;;;;;;;7.56;76.74;97819.31;5014915;28;20535;-75
2021/11/20 04:08:01;;;;;;;19.52;13.65;;;;;;;7.57;76.33;97815.78;5014594;28;20495;-75
2021/11/20 04:10:46;;;;;;;20.58;13.43;;;;;;;7.58;76.66;97817.41;5014668;28;20146;-75
2021/11/20 04:13:14;;;;;;;17.73;13.00;;;;;;;7.58;76.40;97820.00;5014652;28;20053;-75
2021/11/20 04:15:43;;;;;;;18.77;12.80;;;;;;;7.56;76.54;97816.72;5014707;28;20041;-75
2021/11/20 04:18:11;;;;;;;19.80;12.77;;;;;;;7.55;76.57;97812.50;5014443;28;20065;-75
2021/11/20 04:20:39;;;;;;;19.70;13.50;;;;;;;7.52;76.29;97821.38;5014628;28;20054;-75
2021/11/20 04:23:06;;;;;;;18.77;13.18;;;;;;;7.51;76.69;97813.72;5014546;28;20053;-75
2021/11/20 04:25:35;;;;;;;16.50;12.20;;;;;;;7.53;76.83;97809.22;5014381;28;20046;-75
2021/11/20 04:28:04;;;;;;;17.77;12.27;;;;;;;7.53;76.40;97809.22;5014030;28;20046;-75
2021/11/20 04:30:33;;;;;;;18.30;12.27;;;;;;;7.54;76.73;97803.91;5014166;28;20057;-75
2021/11/20 04:33:01;;;;;;;18.23;12.52;;;;;;;7.53;76.16;97801.41;5014381;28;20046;-75
2021/11/20 04:35:29;;;;;;;16.95;12.10;;;;;;;7.50;76.33;97801.66;5014255;28;20049;-75
2021/11/20 04:37:56;;;;;;;18.80;12.73;;;;;;;7.49;76.43;97805.22;5013776;28;20075;-74
2021/11/20 04:40:25;;;;;;;15.88;11.32;;;;;;;7.49;76.36;97805.22;5013989;28;20065;-75
2021/11/20 04:42:53;;;;;;;15.23;11.10;;;;;;;7.50;76.71;97807.69;5013946;28;20053;-75
2021/11/20 04:45:24;;;;;;;16.65;12.60;;;;;;;7.51;76.72;97803.31;5014242;28;20050;-74
2021/11/20 04:47:52;;;;;;;19.10;12.07;;;;;;;7.52;76.57;97799.75;5014327;28;20490;-74
2021/11/20 04:50:22;;;;;;;16.27;11.73;;;;;;;7.53;76.37;97802.22;5014436;28;20057;-75
2021/11/20 04:52:51;;;;;;;16.50;11.52;;;;;;;7.53;76.39;97791.03;5013768;28;20567;-75
2021/11/20 04:55:19;;;;;;;16.35;11.32;;;;;;;7.53;76.36;97786.66;5013964;28;20050;-74
2021/11/20 04:57:47;;;;;;;13.55;9.98;;;;;;;7.53;76.24;97783.25;5013664;28;20049;-75
2021/11/20 05:00:18;;;;;;;14.32;10.95;;;;;;;7.53;76.50;97785.84;5013128;28;20049;-75
2021/11/20 05:02:47;;;;;;;14.55;10.48;;;;;;;7.54;76.46;97774.47;5013607;28;20407;-75
2021/11/20 05:05:16;;;;;;;14.07;10.93;;;;;;;7.55;76.40;97770.94;5013565;28;20057;-74
2021/11/20 05:07:43;;;;;;;13.57;10.13;;;;;;;7.55;76.37;97768.34;5013434;28;20529;-75
2021/11/20 05:10:12;;;;;;;14.00;9.40;;;;;;;7.52;76.38;97769.44;5013410;28;20064;-75
2021/11/20 05:12:41;;;;;;;12.18;9.05;;;;;;;7.51;76.51;97769.56;5013435;28;20054;-75
2021/11/20 05:15:11;;;;;;;12.48;8.68;;;;;;;7.53;76.68;97767.66;5013894;28;20050;-75
2021/11/20 05:17:39;;;;;;;12.55;8.90;;;;;;;7.53;76.51;97759.88;5013264;28;20055;-75
2021/11/20 05:20:14;;;;;;;11.07;8.55;;;;;;;7.52;76.26;97760.81;5013386;28;20049;-75
2021/11/20 05:22:42;;;;;;;11.95;8.02;;;;;;;7.52;76.30;97763.41;5013495;28;20268;-75
2021/11/20 05:25:11;;;;;;;10.55;7.82;;;;;;;7.51;76.57;97756.59;5013314;28;20434;-75
2021/11/20 05:27:39;;;;;;;10.32;7.60;;;;;;;7.52;76.35;97756.47;5012937;28;20454;-75
2021/11/20 05:30:16;;;;;;;11.13;8.32;;;;;;;7.54;76.44;97756.31;5013335;28;20054;-75
2021/11/20 05:32:43;;;;;;;9.70;7.78;;;;;;;7.55;76.52;97760.56;5013678;28;20058;-75
2021/11/20 05:35:12;;;;;;;12.00;8.52;;;;;;;7.56;76.33;97754.41;5013139;28;20423;-75
2021/11/20 05:37:40;;;;;;;9.68;7.53;;;;;;;7.58;76.44;97753.31;5012546;28;20514;-75
2021/11/20 05:40:13;;;;;;;9.45;6.93;;;;;;;7.60;76.24;97766.16;5013178;28;20049;-75
2021/11/20 05:42:41;;;;;;;9.02;6.90;;;;;;;7.60;76.50;97755.78;5012898;28;20077;-75
2021/11/20 05:45:09;;;;;;;9.15;7.47;;;;;;;7.60;76.35;97760.97;5013018;28;20050;-74
2021/11/20 05:47:37;;;;;;;10.15;7.95;;;;;;;7.60;76.24;97763.56;5012647;28;20419;-76
2021/11/20 05:50:06;;;;;;;11.65;8.93;;;;;;;7.60;75.96;97758.38;5012784;28;20054;-75
2021/11/20 05:52:35;;;;;;;10.40;7.97;;;;;;;7.61;76.09;97760.03;5012942;28;20050;-76
2021/11/20 05:55:04;;;;;;;10.18;8.20;;;;;;;7.61;76.11;97757.44;5012861;28;20042;-75
2021/11/20 05:57:32;;;;;;;14.35;9.57;;;;;;;7.62;76.01;97759.06;5012435;28;20649;-75
2021/11/20 05:59:59;;;;;;;16.63;9.57;;;;;;;7.59;76.02;97751.56;5013154;28;20050;-75
2021/11/20 06:02:28;;;;;;;13.90;8.95;;;;;;;7.56;75.82;97749.22;5012907;28;20057;-75
2021/11/20 06:04:55;;;;;;;15.10;10.68;;;;;;;7.52;75.86;97747.84;5012621;28;20081;-74
2021/11/20 06:07:23;;;;;;;14.15;10.60;;;;;;;7.49;75.94;97746.31;5012121;28;20053;-75
2021/11/20 06:09:52;;;;;;;13.88;9.30;;;;;;;7.47;76.15;97747.44;5011166;28;20049;-75
2021/11/20 06:12:19;;;;;;;10.82;8.20;;;;;;;7.46;76.01;97746.63;5011158;28;20053;-75
2021/11/20 06:14:47;;;;;;;12.35;8.63;;;;;;;7.43;75.96;97737.31;5011051;28;20065;-75
2021/11/20 06:17:14;;;;;;;12.82;9.40;;;;;;;7.42;76.30;97740.84;5007741;28;20060;-75
2021/11/20 06:19:42;;;;;;;12.93;9.07;;;;;;;7.41;76.24;97744.41;5009083;28;20041;-75
2021/11/20 06:22:10;;;;;;;10.40;8.05;;;;;;;7.43;76.35;97739.06;5010977;28;20038;-75
2021/11/20 06:24:37;;;;;;;11.50;8.27;;;;;;;7.46;76.26;97738.00;5012213;28;20089;-75
2021/11/20 06:27:06;;;;;;;9.73;7.60;;;;;;;7.46;76.42;97743.19;5012042;28;20062;-75
2021/11/20 06:29:33;;;;;;;12.63;8.48;;;;;;;7.46;76.41;97738.00;5012864;28;20053;-77
2021/11/20 06:32:01;;;;;;;9.98;8.02;;;;;;;7.47;76.38;97745.63;5013079;28;20050;-76
2021/11/20 06:34:29;;;;;;;8.15;7.03;;;;;;;7.48;76.29;97741.25;5012710;28;20050;-76
2021/11/20 06:36:57;;;;;;;10.00;8.02;;;;;;;7.48;76.36;97744.69;5013473;28;20423;-76
2021/11/20 06:39:24;;;;;;;9.02;6.57;;;;;;;7.50;76.64;97749.75;5013410;28;20054;-76
2021/11/20 06:41:52;;;;;;;12.13;8.18;;;;;;;7.52;76.69;97747.84;5013009;28;20053;-75
2021/11/20 06:44:21;;;;;;;8.82;6.60;;;;;;;7.53;76.63;97755.50;5012814;28;20052;-76
2021/11/20 06:46:48;;;;;;;11.15;8.27;;;;;;;7.53;76.34;97754.69;5012980;28;20072;-75
2021/11/20 06:49:16;;;;;;;11.57;8.90;;;;;;;7.54;76.39;97761.50;5012675;28;20058;-75
2021/11/20 06:51:43;;;;;;;10.35;7.82;;;;;;;7.50;76.22;97760.97;5012723;28;20056;-75
2021/11/20 06:54:12;;;;;;;10.57;7.72;;;;;;;7.50;76.36;97765.31;5013456;28;20046;-76
2021/11/20 06:56:52;;;;;;;11.13;8.57;;;;;;;7.47;76.46;97774.19;5012804;28;20058;-76
2021/11/20 07:02:17;;;;;;;12.18;8.10;;;;;;;7.42;76.56;97759.03;5004918;28;20054;-75
2021/11/20 07:04:44;;;;;;;10.52;7.55;;;;;;;7.40;76.44;97766.13;5027226;28;20079;-76
2021/11/20 07:07:13;;;;;;;11.48;8.73;;;;;;;7.37;76.63;97766.41;5033769;28;20054;-76
2021/11/20 07:09:42;;;;;;;10.15;7.95;;;;;;;7.36;76.77;97775.13;5034379;28;20101;-75
2021/11/20 07:12:09;;;;;;;9.65;8.30;;;;;;;7.36;76.83;97774.31;5034278;28;20058;-75
2021/11/20 07:14:38;;;;;;;10.90;7.97;;;;;;;7.33;77.01;97759.84;5029780;28;20454;-75
2021/11/20 07:17:05;;;;;;;11.48;8.48;;;;;;;7.32;77.18;97758.16;5014216;28;20061;-75
2021/11/20 07:19:33;;;;;;;11.75;7.82;;;;;;;7.33;77.23;97759.84;5014109;28;20126;-76
2021/11/20 07:22:00;;;;;;;11.73;8.57;;;;;;;7.36;76.90;97753.53;5013509;28;20058;-75
2021/11/20 07:24:29;;;;;;;12.25;8.45;;;;;;;7.37;76.83;97750.81;5020179;28;20046;-75
2021/11/20 07:26:56;;;;;;;11.50;8.63;;;;;;;7.39;76.98;97746.31;5036439;28;20054;-75
2021/11/20 07:29:24;;;;;;;13.40;9.50;;;;;;;7.41;77.19;97740.97;5036684;28;20041;-75
2021/11/20 07:31:53;;;;;;;12.77;8.82;;;;;;;7.42;77.20;97748.66;5034380;28;20060;-75
2021/11/20 07:34:20;;;;;;;11.20;8.55;;;;;;;7.42;76.93;97743.44;5023984;28;20057;-74
2021/11/20 07:36:48;;;;;;;11.23;8.77;;;;;;;7.40;76.97;97740.16;5027099;28;20058;-75
2021/11/20 07:39:17;;;;;;;11.15;8.98;;;;;;;7.40;76.99;97740.16;5027674;28;20050;-76
2021/11/20 07:41:45;;;;;;;13.68;9.20;;;;;;;7.37;77.22;97740.44;5020361;28;20108;-76
2021/11/20 07:44:13;;;;;;;11.95;8.52;;;;;;;7.35;77.31;97739.75;5019089;28;20505;-75
2021/11/20 07:46:41;;;;;;;12.65;8.57;;;;;;;7.32;77.76;97742.59;5017020;28;20194;-75
2021/11/20 07:49:10;;;;;;;11.60;8.88;;;;;;;7.33;78.27;97744.25;5017910;28;20057;-76
2021/11/20 07:51:37;;;;;;;11.38;8.50;;;;;;;7.34;78.03;97734.69;5016359;28;20049;-75
2021/11/20 07:54:05;;;;;;;11.77;8.85;;;;;;;7.36;77.70;97731.00;5017888;28;20053;-76
2021/11/20 07:56:35;;;;;;;12.05;9.10;;;;;;;7.39;77.71;97732.50;5016168;28;20049;-75
2021/11/20 07:59:03;;;;;;;11.93;8.75;;;;;;;7.42;77.42;97733.06;5017396;28;20053;-75
2021/11/20 08:01:30;;;;;;;14.45;10.07;;;;;;;7.43;77.23;97728.69;5016836;28;20046;-75
2021/11/20 08:03:58;;;;;;;13.75;10.35;;;;;;;7.46;77.36;97722.44;5016931;28;20100;-76
2021/11/20 08:06:27;;;;;;;12.43;9.73;;;;;;;7.48;76.72;97721.34;5015851;28;20895;-75
2021/11/20 08:08:55;;;;;;;13.80;10.20;;;;;;;7.48;76.67;97720.50;5016968;28;20057;-76
2021/11/20 08:11:23;;;;;;;13.07;9.80;;;;;;;7.45;76.85;97721.59;5017586;28;20052;-76
2021/11/20 08:13:50;;;;;;;12.85;9.55;;;;;;;7.47;76.59;97721.47;5017067;28;20084;-76
2021/11/20 08:16:18;;;;;;;12.10;9.55;;;;;;;7.48;76.12;97723.09;5014374;28;20403;-77
2021/11/20 08:18:45;;;;;;;13.10;9.70;;;;;;;7.51;75.89;97710.66;5014891;28;20062;-75
2021/11/20 08:21:13;;;;;;;11.35;9.30;;;;;;;7.54;75.60;97709.56;5015161;28;20053;-76
2021/11/20 08:23:42;;;;;;;10.45;8.20;;;;;;;7.57;74.71;97709.31;5015463;28;20056;-76
2021/11/20 08:26:10;;;;;;;11.07;8.38;;;;;;;7.58;74.68;97701.38;5015448;28;20050;-76
2021/11/20 08:28:38;;;;;;;17.52;12.90;;;;;;;7.61;74.01;97695.13;5014796;28;20049;-76
2021/11/20 08:31:09;;;;;;;12.63;9.57;;;;;;;7.64;73.24;97697.44;5015507;28;20056;-75
2021/11/20 08:33:37;;;;;;;11.80;9.20;;;;;;;7.67;73.69;97696.34;5014787;28;20148;-75
2021/11/20 08:36:09;;;;;;;11.95;9.45;;;;;;;7.71;73.95;97698.50;5015301;28;20058;-75
2021/11/20 08:38:36;;;;;;;11.23;6.60;;;;;;;7.75;74.13;97691.28;5014965;28;20061;-75
2021/11/20 08:41:06;;;;;;;8.45;7.40;;;;;;;7.77;74.39;97692.78;5014385;28;20286;-75
2021/11/20 08:43:33;;;;;;;9.27;7.60;;;;;;;7.78;73.91;97680.59;5014239;28;20491;-76
2021/11/20 08:46:03;;;;;;;8.50;7.40;;;;;;;7.78;73.71;97681.44;5014249;28;20060;-76
2021/11/20 08:48:31;;;;;;;9.75;7.82;;;;;;;7.80;73.62;97681.28;5015126;28;20073;-76
2021/11/20 08:51:04;;;;;;;11.38;9.45;;;;;;;7.82;72.94;97682.78;5014284;28;20046;-78
2021/11/20 08:53:32;;;;;;;11.95;9.70;;;;;;;7.83;73.37;97674.06;5016435;28;20590;-76
2021/11/20 08:56:00;;;;;;;10.23;8.63;;;;;;;7.87;73.40;97673.75;5011920;28;20042;-76
2021/11/20 08:58:29;;;;;;;14.75;10.35;;;;;;;7.89;73.27;97677.03;5012196;28;20058;-76
2021/11/20 09:01:00;;;;;;;12.00;9.90;;;;;;;7.88;73.06;97668.44;5014536;28;20045;-76
2021/11/20 09:03:33;;;;;;;13.80;10.73;;;;;;;7.88;72.89;97670.22;5013967;28;20096;-75
2021/11/20 09:06:05;;;;;;;13.20;9.75;;;;;;;7.87;72.76;97664.22;5013501;28;20050;-76
2021/11/20 09:08:39;;;;;;;15.70;10.07;;;;;;;7.84;72.40;97665.28;5012015;28;20522;-75
2021/11/20 09:11:11;;;;;;;12.50;9.45;;;;;;;7.82;72.62;97662.00;5041471;23;20088;-79
2021/11/20 09:13:46;;;;;;;9.98;8.25;;;;;;;7.80;71.72;97657.91;5035609;28;20056;-78
2021/11/20 09:16:18;;;;;;;9.70;7.72;;;;;;;7.76;71.37;97665.19;5033947;28;20085;-78
2021/11/20 09:18:46;;;;;;;10.40;8.00;;;;;;;7.72;71.47;97661.22;5034202;28;20056;-77
2021/11/20 09:21:15;;;;;;;10.23;8.35;;;;;;;7.72;71.31;97655.19;5036966;28;20780;-78
2021/11/20 09:23:44;;;;;;;10.32;8.45;;;;;;;7.71;71.46;97659.56;5037747;28;20065;-77
2021/11/20 09:26:14;;;;;;;12.15;8.55;;;;;;;7.73;71.28;97662.03;5037278;28;20074;-77
2021/11/20 09:29:01;;;;;;;12.75;8.15;;;;;;;7.73;71.05;97659.44;5039202;28;20049;-77
2021/11/20 09:31:30;;;;;;;8.27;7.20;;;;;;;7.75;70.93;97660.94;5038422;28;20054;-80
2021/11/20 09:33:57;;;;;;;6.97;6.20;;;;;;;7.78;71.26;97665.88;5037275;28;20067;-79
2021/11/20 09:36:26;;;;;;;8.68;6.47;;;;;;;7.80;71.28;97658.72;5035802;28;20053;-81
2021/11/20 09:38:55;;;;;;;6.65;5.93;;;;;;;7.83;71.02;97663.66;5036120;28;20434;-76
2021/11/20 09:41:25;;;;;;;8.77;7.05;;;;;;;7.86;71.30;97664.34;5035710;28;20045;-78
2021/11/20 09:43:56;;;;;;;7.70;5.40;;;;;;;7.89;70.94;97658.88;5037042;28;20057;-78
2021/11/20 09:46:30;;;;;;;16.02;11.05;;;;;;;7.88;69.77;97665.84;5035249;28;20502;-77
2021/11/20 09:49:01;;;;;;;12.68;9.50;;;;;;;7.87;70.34;97660.78;5036606;28;20055;-77
2021/11/20 09:51:34;;;;;;;10.18;8.00;;;;;;;7.88;69.65;97659.84;5037944;28;20084;-76
2021/11/20 09:54:06;;;;;;;9.13;7.05;;;;;;;7.86;69.62;97652.16;5037286;28;20054;-77
2021/11/20 09:56:43;;;;;;;7.70;6.35;;;;;;;7.88;69.55;97649.44;5037793;28;20403;-78
2021/11/20 09:59:24;;;;;;;6.57;5.03;;;;;;;7.87;69.06;97647.78;5035859;28;20071;-77
2021/11/20 10:01:59;;;;;;;6.45;5.75;;;;;;;7.86;69.27;97644.38;5036164;28;20057;-79
2021/11/20 10:04:31;;;;;;;8.25;6.38;;;;;;;7.87;69.74;97647.78;5035511;28;20519;-78
2021/11/20 10:07:14;;;;;;;9.35;5.90;;;;;;;7.87;69.50;97640.84;5035561;28;20041;-77
2021/11/20 10:09:47;;;;;;;6.43;4.43;;;;;;;7.85;69.51;97640.16;5035738;28;20133;-77
2021/11/20 10:12:23;;;;;;;4.93;3.78;;;;;;;7.86;70.15;97634.00;5037103;28;20057;-76
2021/11/20 10:14:55;;;;;;;4.32;3.28;;;;;;;7.89;70.42;97632.88;5037314;28;20057;-77
2021/11/20 10:17:32;;;;;;;5.10;3.75;;;;;;;7.89;70.35;97625.91;5035635;28;20053;-77
2021/11/20 10:20:03;;;;;;;7.00;3.65;;;;;;;7.92;70.50;97622.22;5036125;28;20056;-79
2021/11/20 10:22:51;;;;;;;4.60;3.67;;;;;;;7.95;69.94;97620.16;5035069;28;20418;-77
2021/11/20 10:25:25;;;;;;;7.38;4.15;;;;;;;7.97;70.37;97622.63;5036709;28;20053;-77
2021/11/20 10:28:12;;;;;;;4.68;4.10;;;;;;;7.98;69.49;97614.69;5036687;28;20048;-79
2021/11/20 10:30:53;;;;;;;4.97;3.97;;;;;;;7.99;69.13;97615.50;5037333;28;20418;-78
2021/11/20 10:33:25;;;;;;;6.32;4.65;;;;;;;7.99;69.38;97613.72;5034724;28;20537;-77
2021/11/20 10:36:06;;;;;;;5.25;3.90;;;;;;;8.02;68.92;97610.03;5037247;28;20045;-78
2021/11/20 10:38:39;;;;;;;5.40;4.90;;;;;;;8.05;69.12;97596.75;5037270;28;20064;-79
2021/11/20 10:41:11;;;;;;;6.15;4.80;;;;;;;8.08;69.49;97599.06;5035343;28;20045;-79
2021/11/20 10:43:41;;;;;;;5.07;4.30;;;;;;;8.07;69.27;97594.84;5037326;28;20053;-77
2021/11/20 10:46:23;;;;;;;3.50;3.10;;;;;;;8.08;68.92;97591.28;5033913;28;20061;-79
2021/11/20 10:49:12;;;;;;;4.83;4.00;;;;;;;8.09;69.27;97598.13;5036097;28;20061;-77
2021/11/20 10:51:51;;;;;;;7.85;5.78;;;;;;;8.09;68.97;97590.31;5034523;28;20064;-80
2021/11/20 10:55:00;;;;;;;5.50;4.05;;;;;;;8.11;70.18;97587.56;5038415;28;20049;-77
2021/11/20 10:57:45;;;;;;;4.35;3.50;;;;;;;8.14;69.94;97577.72;5001543;28;20418;-77
2021/11/20 11:00:26;;;;;;;5.10;3.78;;;;;;;8.14;69.52;97579.50;5041989;28;20061;-80
2021/11/20 11:03:28;;;;;;;5.57;4.07;;;;;;;8.13;69.58;97572.66;5043270;28;20061;-78
2021/11/20 11:06:43;;;;;;;3.20;2.90;;;;;;;8.12;69.38;97568.44;5044006;28;20049;-79
2021/11/20 11:09:39;;;;;;;4.40;3.28;;;;;;;8.13;70.09;97549.25;5030171;28;20049;-79
2021/11/20 11:12:17;;;;;;;5.07;3.80;;;;;;;8.15;70.02;97555.13;5038303;28;20450;-78
2021/11/20 11:15:03;;;;;;;4.88;3.90;;;;;;;8.18;70.23;97550.47;5041745;28;20426;-79
2021/11/20 11:18:03;;;;;;;4.30;3.78;;;;;;;8.20;70.19;97535.56;5038868;28;20053;-79
2021/11/20 11:20:41;;;;;;;4.85;3.83;;;;;;;8.19;69.42;97543.50;5039349;28;20061;-79
2021/11/20 11:23:19;;;;;;;46.20;29.40;;;;;;;8.16;69.89;97533.41;5041744;28;20049;-79
2021/11/20 11:25:52;;;;;;;8.90;7.15;;;;;;;8.17;69.88;97529.81;5038146;28;20053;-77
2021/11/20 11:28:27;;;;;;;6.03;4.65;;;;;;;8.15;70.04;97518.75;5039498;28;20434;-79
2021/11/20 11:31:10;;;;;;;6.35;4.47;;;;;;;8.14;70.30;97510.16;5041049;28;20068;-78
2021/11/20 11:33:41;;;;;;;4.70;3.97;;;;;;;8.15;70.39;97506.56;5038704;28;20053;-79
2021/11/20 11:36:27;;;;;;;4.88;4.28;;;;;;;8.15;70.18;97506.56;5039421;28;20049;-78
2021/11/20 11:39:06;;;;;;;6.28;4.18;;;;;;;8.15;70.31;97501.38;5041156;28;20076;-80
2021/11/20 11:41:38;;;;;;;4.88;4.05;;;;;;;8.16;70.60;97491.81;5038405;28;20061;-76
2021/11/20 11:44:10;;;;;;;5.90;4.50;;;;;;;8.17;70.44;97490.84;5037685;28;20057;-78
2021/11/20 11:46:52;;;;;;;5.88;4.70;;;;;;;8.16;70.76;97482.22;5039447;28;20715;-78
2021/11/20 11:49:42;;;;;;;3.85;3.40;;;;;;;8.17;70.53;97478.66;5039391;28;20057;-81
2021/11/20 11:52:45;;;;;;;5.00;4.50;;;;;;;8.17;70.57;97465.66;5039410;28;20145;-77